Dresden, Kansas
Current Conditions -  °F | °C
As of 2:53 AM on Friday 24 Oct 2014 (Local Time) from KHLC Reporting Station
Clear Clear  
Wind Chill: 58°   Ceiling: Unl
Heat Index: 58°   Visibility: 8mi
Dew Point: 55°   Wind: 5mph
Humidity: 90%   Direction: 240°WSW
Pressure: 30.02"   Gusts: NA
Location:  39.62°N, 100.42°W
Report Text: KHLC 240753Z AUTO 24004KT 8SM CLR 14/13 A3002 RMK AO2 SLP153 T01440128
Loading
Personal Weather Stations






























Interactive Weather Map
Tropical Storm Tracking
New forecast layout! Learn more

10-Day Weather Forecast

Advertisements
Track Severe Weather on mobile